sensor_id;sensor_type;location;lat;lon;timestamp;P1;durP1;ratioP1;P2;durP2;ratioP2
20170;SDS011;10245;51.344;6.620;2023-12-22T00:01:16;9.10;;;2.20;;
20170;SDS011;10245;51.344;6.620;2023-12-22T00:03:49;4.85;;;2.00;;
20170;SDS011;10245;51.344;6.620;2023-12-22T00:06:46;7.90;;;1.55;;
20170;SDS011;10245;51.344;6.620;2023-12-22T00:09:26;4.75;;;1.88;;
20170;SDS011;10245;51.344;6.620;2023-12-22T00:12:01;6.75;;;1.70;;
20170;SDS011;10245;51.344;6.620;2023-12-22T00:14:36;7.75;;;1.88;;
20170;SDS011;10245;51.344;6.620;2023-12-22T00:17:10;8.18;;;1.98;;
20170;SDS011;10245;51.344;6.620;2023-12-22T00:19:52;10.67;;;1.80;;
20170;SDS011;10245;51.344;6.620;2023-12-22T00:22:18;13.40;;;2.50;;
20170;SDS011;10245;51.344;6.620;2023-12-22T00:24:42;9.98;;;2.03;;
20170;SDS011;10245;51.344;6.620;2023-12-22T00:27:05;9.65;;;2.90;;
20170;SDS011;10245;51.344;6.620;2023-12-22T00:29:28;6.50;;;1.87;;
20170;SDS011;10245;51.344;6.620;2023-12-22T00:31:53;7.80;;;1.77;;
20170;SDS011;10245;51.344;6.620;2023-12-22T00:34:16;8.90;;;2.47;;
20170;SDS011;10245;51.344;6.620;2023-12-22T00:36:41;11.38;;;2.40;;
20170;SDS011;10245;51.344;6.620;2023-12-22T00:39:05;12.60;;;2.05;;
20170;SDS011;10245;51.344;6.620;2023-12-22T00:41:29;9.43;;;2.10;;
20170;SDS011;10245;51.344;6.620;2023-12-22T00:43:52;12.63;;;2.30;;
20170;SDS011;10245;51.344;6.620;2023-12-22T00:46:15;10.77;;;2.20;;
20170;SDS011;10245;51.344;6.620;2023-12-22T00:48:40;10.10;;;2.10;;
20170;SDS011;10245;51.344;6.620;2023-12-22T00:51:05;13.32;;;2.67;;
20170;SDS011;10245;51.344;6.620;2023-12-22T00:53:28;8.90;;;2.30;;
20170;SDS011;10245;51.344;6.620;2023-12-22T00:55:51;12.50;;;2.78;;
20170;SDS011;10245;51.344;6.620;2023-12-22T00:58:15;8.73;;;2.53;;
20170;SDS011;10245;51.344;6.620;2023-12-22T01:00:38;10.80;;;2.40;;
20170;SDS011;10245;51.344;6.620;2023-12-22T01:03:02;8.88;;;2.50;;
20170;SDS011;10245;51.344;6.620;2023-12-22T01:05:27;13.10;;;2.90;;
20170;SDS011;10245;51.344;6.620;2023-12-22T01:07:51;15.47;;;3.10;;
20170;SDS011;10245;51.344;6.620;2023-12-22T01:10:14;13.52;;;2.38;;
20170;SDS011;10245;51.344;6.620;2023-12-22T01:12:37;9.15;;;2.22;;
20170;SDS011;10245;51.344;6.620;2023-12-22T01:15:01;12.82;;;2.95;;
20170;SDS011;10245;51.344;6.620;2023-12-22T01:17:24;10.32;;;2.60;;
20170;SDS011;10245;51.344;6.620;2023-12-22T01:19:48;12.53;;;2.90;;
20170;SDS011;10245;51.344;6.620;2023-12-22T01:22:13;12.53;;;2.67;;
20170;SDS011;10245;51.344;6.620;2023-12-22T01:24:37;14.55;;;2.55;;
20170;SDS011;10245;51.344;6.620;2023-12-22T01:27:04;16.80;;;3.63;;
20170;SDS011;10245;51.344;6.620;2023-12-22T01:29:27;12.82;;;2.53;;
20170;SDS011;10245;51.344;6.620;2023-12-22T01:31:50;14.10;;;3.13;;
20170;SDS011;10245;51.344;6.620;2023-12-22T01:34:13;7.88;;;2.42;;
20170;SDS011;10245;51.344;6.620;2023-12-22T01:36:37;13.23;;;2.80;;
20170;SDS011;10245;51.344;6.620;2023-12-22T01:39:01;10.55;;;2.67;;
20170;SDS011;10245;51.344;6.620;2023-12-22T01:41:27;15.15;;;2.85;;
20170;SDS011;10245;51.344;6.620;2023-12-22T01:43:51;11.68;;;3.10;;
20170;SDS011;10245;51.344;6.620;2023-12-22T01:46:14;12.00;;;2.55;;
20170;SDS011;10245;51.344;6.620;2023-12-22T01:48:38;17.70;;;2.65;;
20170;SDS011;10245;51.344;6.620;2023-12-22T01:51:03;13.82;;;2.80;;
20170;SDS011;10245;51.344;6.620;2023-12-22T01:53:27;9.77;;;2.20;;
20170;SDS011;10245;51.344;6.620;2023-12-22T01:55:53;15.05;;;2.92;;
20170;SDS011;10245;51.344;6.620;2023-12-22T01:58:17;12.27;;;2.57;;
20170;SDS011;10245;51.344;6.620;2023-12-22T02:00:42;10.27;;;2.83;;
20170;SDS011;10245;51.344;6.620;2023-12-22T02:03:05;14.35;;;3.08;;
20170;SDS011;10245;51.344;6.620;2023-12-22T02:05:29;12.60;;;2.70;;
20170;SDS011;10245;51.344;6.620;2023-12-22T02:07:52;14.32;;;2.85;;
20170;SDS011;10245;51.344;6.620;2023-12-22T02:10:15;13.55;;;2.25;;
20170;SDS011;10245;51.344;6.620;2023-12-22T02:12:41;6.88;;;1.95;;
20170;SDS011;10245;51.344;6.620;2023-12-22T02:15:05;5.53;;;1.63;;
20170;SDS011;10245;51.344;6.620;2023-12-22T02:17:32;9.00;;;1.70;;
20170;SDS011;10245;51.344;6.620;2023-12-22T02:20:04;5.75;;;1.58;;
20170;SDS011;10245;51.344;6.620;2023-12-22T02:22:30;6.47;;;1.40;;
20170;SDS011;10245;51.344;6.620;2023-12-22T02:24:54;8.63;;;1.80;;
20170;SDS011;10245;51.344;6.620;2023-12-22T02:27:21;7.15;;;1.67;;
20170;SDS011;10245;51.344;6.620;2023-12-22T02:29:54;6.22;;;1.77;;
20170;SDS011;10245;51.344;6.620;2023-12-22T02:32:27;7.03;;;1.37;;
20170;SDS011;10245;51.344;6.620;2023-12-22T02:34:56;6.27;;;1.47;;
20170;SDS011;10245;51.344;6.620;2023-12-22T02:37:23;7.10;;;1.45;;
20170;SDS011;10245;51.344;6.620;2023-12-22T02:39:50;7.70;;;1.60;;
20170;SDS011;10245;51.344;6.620;2023-12-22T02:42:15;7.72;;;1.70;;
20170;SDS011;10245;51.344;6.620;2023-12-22T02:44:39;8.30;;;2.00;;
20170;SDS011;10245;51.344;6.620;2023-12-22T02:47:04;5.87;;;1.10;;
20170;SDS011;10245;51.344;6.620;2023-12-22T02:49:27;8.45;;;1.58;;
20170;SDS011;10245;51.344;6.620;2023-12-22T02:51:51;7.35;;;1.60;;
20170;SDS011;10245;51.344;6.620;2023-12-22T02:54:14;6.73;;;1.87;;
20170;SDS011;10245;51.344;6.620;2023-12-22T02:56:38;9.23;;;1.73;;
20170;SDS011;10245;51.344;6.620;2023-12-22T02:59:04;7.27;;;1.87;;
20170;SDS011;10245;51.344;6.620;2023-12-22T03:01:27;9.10;;;1.83;;
20170;SDS011;10245;51.344;6.620;2023-12-22T03:03:51;7.60;;;2.00;;
20170;SDS011;10245;51.344;6.620;2023-12-22T03:06:14;10.67;;;2.33;;
20170;SDS011;10245;51.344;6.620;2023-12-22T03:08:39;9.57;;;2.27;;
20170;SDS011;10245;51.344;6.620;2023-12-22T03:11:03;6.35;;;1.98;;
20170;SDS011;10245;51.344;6.620;2023-12-22T03:13:27;7.00;;;1.87;;
20170;SDS011;10245;51.344;6.620;2023-12-22T03:15:50;8.43;;;2.22;;
20170;SDS011;10245;51.344;6.620;2023-12-22T03:18:14;11.38;;;2.17;;
20170;SDS011;10245;51.344;6.620;2023-12-22T03:20:37;6.18;;;1.58;;
20170;SDS011;10245;51.344;6.620;2023-12-22T03:23:00;8.68;;;2.00;;
20170;SDS011;10245;51.344;6.620;2023-12-22T03:25:23;8.75;;;2.05;;
20170;SDS011;10245;51.344;6.620;2023-12-22T03:27:47;5.97;;;1.77;;
20170;SDS011;10245;51.344;6.620;2023-12-22T03:30:12;10.45;;;2.10;;
20170;SDS011;10245;51.344;6.620;2023-12-22T03:32:36;5.03;;;2.00;;
20170;SDS011;10245;51.344;6.620;2023-12-22T03:34:59;10.10;;;1.90;;
20170;SDS011;10245;51.344;6.620;2023-12-22T03:37:23;9.53;;;2.20;;
20170;SDS011;10245;51.344;6.620;2023-12-22T03:39:46;13.13;;;2.90;;
20170;SDS011;10245;51.344;6.620;2023-12-22T03:42:10;10.47;;;2.47;;
20170;SDS011;10245;51.344;6.620;2023-12-22T03:44:33;8.48;;;2.40;;
20170;SDS011;10245;51.344;6.620;2023-12-22T03:46:58;9.73;;;2.43;;
20170;SDS011;10245;51.344;6.620;2023-12-22T03:49:21;7.40;;;2.03;;
20170;SDS011;10245;51.344;6.620;2023-12-22T03:51:45;8.55;;;2.15;;
20170;SDS011;10245;51.344;6.620;2023-12-22T03:54:08;8.57;;;2.38;;
20170;SDS011;10245;51.344;6.620;2023-12-22T03:56:31;14.25;;;2.90;;
20170;SDS011;10245;51.344;6.620;2023-12-22T03:58:55;11.80;;;2.50;;
20170;SDS011;10245;51.344;6.620;2023-12-22T04:01:18;14.88;;;3.05;;
20170;SDS011;10245;51.344;6.620;2023-12-22T04:03:43;17.95;;;3.55;;
20170;SDS011;10245;51.344;6.620;2023-12-22T04:06:06;17.80;;;3.77;;
20170;SDS011;10245;51.344;6.620;2023-12-22T04:08:29;16.87;;;3.30;;
20170;SDS011;10245;51.344;6.620;2023-12-22T04:10:53;17.00;;;3.30;;
20170;SDS011;10245;51.344;6.620;2023-12-22T04:13:16;15.10;;;3.57;;
20170;SDS011;10245;51.344;6.620;2023-12-22T04:15:40;20.23;;;3.65;;
20170;SDS011;10245;51.344;6.620;2023-12-22T04:18:03;13.97;;;3.13;;
20170;SDS011;10245;51.344;6.620;2023-12-22T04:20:28;14.70;;;3.30;;
20170;SDS011;10245;51.344;6.620;2023-12-22T04:22:52;18.27;;;3.63;;
20170;SDS011;10245;51.344;6.620;2023-12-22T04:25:16;19.17;;;3.63;;
20170;SDS011;10245;51.344;6.620;2023-12-22T04:27:39;15.73;;;3.55;;
20170;SDS011;10245;51.344;6.620;2023-12-22T04:30:03;20.83;;;3.83;;
20170;SDS011;10245;51.344;6.620;2023-12-22T04:32:28;17.97;;;3.90;;
20170;SDS011;10245;51.344;6.620;2023-12-22T04:34:51;15.47;;;4.03;;
20170;SDS011;10245;51.344;6.620;2023-12-22T04:37:16;18.23;;;4.07;;
20170;SDS011;10245;51.344;6.620;2023-12-22T04:39:40;16.48;;;3.78;;
20170;SDS011;10245;51.344;6.620;2023-12-22T04:42:04;30.13;;;5.47;;
20170;SDS011;10245;51.344;6.620;2023-12-22T04:44:27;20.00;;;3.90;;
20170;SDS011;10245;51.344;6.620;2023-12-22T04:46:50;23.50;;;4.07;;
20170;SDS011;10245;51.344;6.620;2023-12-22T04:49:15;22.00;;;4.22;;
20170;SDS011;10245;51.344;6.620;2023-12-22T04:51:38;24.60;;;4.18;;
20170;SDS011;10245;51.344;6.620;2023-12-22T04:54:03;16.67;;;3.63;;
20170;SDS011;10245;51.344;6.620;2023-12-22T04:56:26;20.88;;;4.85;;
20170;SDS011;10245;51.344;6.620;2023-12-22T04:58:49;20.58;;;4.40;;
20170;SDS011;10245;51.344;6.620;2023-12-22T05:01:13;24.45;;;4.35;;
20170;SDS011;10245;51.344;6.620;2023-12-22T05:03:36;18.45;;;4.15;;
20170;SDS011;10245;51.344;6.620;2023-12-22T05:05:59;17.60;;;4.13;;
20170;SDS011;10245;51.344;6.620;2023-12-22T05:08:23;17.30;;;3.80;;
20170;SDS011;10245;51.344;6.620;2023-12-22T05:10:47;22.08;;;4.22;;
20170;SDS011;10245;51.344;6.620;2023-12-22T05:13:10;17.35;;;4.05;;
20170;SDS011;10245;51.344;6.620;2023-12-22T05:15:34;20.30;;;4.73;;
20170;SDS011;10245;51.344;6.620;2023-12-22T05:17:57;19.38;;;4.13;;
20170;SDS011;10245;51.344;6.620;2023-12-22T05:20:20;20.80;;;4.63;;
20170;SDS011;10245;51.344;6.620;2023-12-22T05:22:43;16.20;;;3.70;;
20170;SDS011;10245;51.344;6.620;2023-12-22T05:25:07;22.02;;;4.72;;
20170;SDS011;10245;51.344;6.620;2023-12-22T05:27:32;17.05;;;3.95;;
20170;SDS011;10245;51.344;6.620;2023-12-22T05:29:55;21.02;;;4.40;;
20170;SDS011;10245;51.344;6.620;2023-12-22T05:32:22;20.95;;;4.47;;
20170;SDS011;10245;51.344;6.620;2023-12-22T05:34:45;17.70;;;4.22;;
20170;SDS011;10245;51.344;6.620;2023-12-22T05:37:09;22.02;;;3.97;;
20170;SDS011;10245;51.344;6.620;2023-12-22T05:39:32;25.52;;;4.50;;
20170;SDS011;10245;51.344;6.620;2023-12-22T05:41:56;29.88;;;5.07;;
20170;SDS011;10245;51.344;6.620;2023-12-22T05:44:21;17.25;;;3.65;;
20170;SDS011;10245;51.344;6.620;2023-12-22T05:46:45;11.43;;;3.00;;
20170;SDS011;10245;51.344;6.620;2023-12-22T05:49:09;18.73;;;3.80;;
20170;SDS011;10245;51.344;6.620;2023-12-22T05:51:36;18.00;;;3.20;;
20170;SDS011;10245;51.344;6.620;2023-12-22T05:54:00;19.38;;;3.63;;
20170;SDS011;10245;51.344;6.620;2023-12-22T05:56:24;15.35;;;3.10;;
20170;SDS011;10245;51.344;6.620;2023-12-22T05:58:47;13.82;;;3.33;;
20170;SDS011;10245;51.344;6.620;2023-12-22T06:01:16;16.92;;;3.72;;
20170;SDS011;10245;51.344;6.620;2023-12-22T06:03:40;16.77;;;3.22;;
20170;SDS011;10245;51.344;6.620;2023-12-22T06:06:04;12.57;;;3.22;;
20170;SDS011;10245;51.344;6.620;2023-12-22T06:08:28;13.68;;;3.75;;
20170;SDS011;10245;51.344;6.620;2023-12-22T06:10:51;15.30;;;4.03;;
20170;SDS011;10245;51.344;6.620;2023-12-22T06:13:15;19.27;;;4.13;;
20170;SDS011;10245;51.344;6.620;2023-12-22T06:15:39;16.58;;;3.42;;
20170;SDS011;10245;51.344;6.620;2023-12-22T06:18:04;22.67;;;3.38;;
20170;SDS011;10245;51.344;6.620;2023-12-22T06:20:27;19.50;;;3.80;;
20170;SDS011;10245;51.344;6.620;2023-12-22T06:22:50;16.50;;;4.00;;
20170;SDS011;10245;51.344;6.620;2023-12-22T06:25:14;17.40;;;3.80;;
20170;SDS011;10245;51.344;6.620;2023-12-22T06:27:37;18.27;;;4.30;;
20170;SDS011;10245;51.344;6.620;2023-12-22T06:30:00;18.92;;;4.43;;
20170;SDS011;10245;51.344;6.620;2023-12-22T06:32:24;19.88;;;3.30;;
20170;SDS011;10245;51.344;6.620;2023-12-22T06:34:48;18.25;;;4.28;;
20170;SDS011;10245;51.344;6.620;2023-12-22T06:37:11;25.60;;;4.50;;
20170;SDS011;10245;51.344;6.620;2023-12-22T06:39:35;19.50;;;4.18;;
20170;SDS011;10245;51.344;6.620;2023-12-22T06:41:58;15.60;;;3.65;;
20170;SDS011;10245;51.344;6.620;2023-12-22T06:44:21;22.90;;;3.95;;
20170;SDS011;10245;51.344;6.620;2023-12-22T06:46:44;17.27;;;3.38;;
20170;SDS011;10245;51.344;6.620;2023-12-22T06:49:08;20.85;;;3.63;;
20170;SDS011;10245;51.344;6.620;2023-12-22T06:51:32;15.57;;;3.65;;
20170;SDS011;10245;51.344;6.620;2023-12-22T06:53:57;17.80;;;3.30;;
20170;SDS011;10245;51.344;6.620;2023-12-22T06:56:24;12.73;;;3.33;;
20170;SDS011;10245;51.344;6.620;2023-12-22T06:58:49;11.95;;;2.60;;
20170;SDS011;10245;51.344;6.620;2023-12-22T07:01:18;11.45;;;2.97;;
20170;SDS011;10245;51.344;6.620;2023-12-22T07:03:43;12.88;;;3.25;;
20170;SDS011;10245;51.344;6.620;2023-12-22T07:06:08;14.55;;;2.83;;
20170;SDS011;10245;51.344;6.620;2023-12-22T07:08:34;13.18;;;3.10;;
20170;SDS011;10245;51.344;6.620;2023-12-22T07:10:57;12.65;;;3.75;;
20170;SDS011;10245;51.344;6.620;2023-12-22T07:13:20;15.40;;;3.80;;
20170;SDS011;10245;51.344;6.620;2023-12-22T07:15:44;13.35;;;3.42;;
20170;SDS011;10245;51.344;6.620;2023-12-22T07:18:08;19.17;;;3.95;;
20170;SDS011;10245;51.344;6.620;2023-12-22T07:20:32;16.33;;;4.25;;
20170;SDS011;10245;51.344;6.620;2023-12-22T07:22:55;15.38;;;3.72;;
20170;SDS011;10245;51.344;6.620;2023-12-22T07:25:20;15.02;;;4.05;;
20170;SDS011;10245;51.344;6.620;2023-12-22T07:27:43;15.65;;;3.80;;
20170;SDS011;10245;51.344;6.620;2023-12-22T07:30:08;15.43;;;3.70;;
20170;SDS011;10245;51.344;6.620;2023-12-22T07:32:37;15.10;;;3.88;;
20170;SDS011;10245;51.344;6.620;2023-12-22T07:35:03;20.98;;;4.07;;
20170;SDS011;10245;51.344;6.620;2023-12-22T07:37:29;20.67;;;4.85;;
20170;SDS011;10245;51.344;6.620;2023-12-22T07:39:52;20.30;;;3.85;;
20170;SDS011;10245;51.344;6.620;2023-12-22T07:42:18;23.35;;;4.93;;
20170;SDS011;10245;51.344;6.620;2023-12-22T07:44:41;24.50;;;4.70;;
20170;SDS011;10245;51.344;6.620;2023-12-22T07:47:05;21.33;;;5.00;;
20170;SDS011;10245;51.344;6.620;2023-12-22T07:49:31;20.80;;;4.07;;
20170;SDS011;10245;51.344;6.620;2023-12-22T07:51:54;19.25;;;4.60;;
20170;SDS011;10245;51.344;6.620;2023-12-22T07:54:17;20.60;;;4.63;;
20170;SDS011;10245;51.344;6.620;2023-12-22T07:56:41;19.65;;;5.13;;
20170;SDS011;10245;51.344;6.620;2023-12-22T07:59:05;22.23;;;5.13;;
20170;SDS011;10245;51.344;6.620;2023-12-22T08:01:47;30.00;;;5.43;;
20170;SDS011;10245;51.344;6.620;2023-12-22T08:04:10;21.33;;;5.32;;
20170;SDS011;10245;51.344;6.620;2023-12-22T08:06:34;27.58;;;5.93;;
20170;SDS011;10245;51.344;6.620;2023-12-22T08:08:58;27.95;;;5.72;;
20170;SDS011;10245;51.344;6.620;2023-12-22T08:11:21;23.08;;;5.93;;
20170;SDS011;10245;51.344;6.620;2023-12-22T08:13:46;25.15;;;5.75;;
20170;SDS011;10245;51.344;6.620;2023-12-22T08:16:11;25.35;;;6.47;;
20170;SDS011;10245;51.344;6.620;2023-12-22T08:18:34;39.17;;;8.55;;
20170;SDS011;10245;51.344;6.620;2023-12-22T08:20:58;36.92;;;7.32;;
20170;SDS011;10245;51.344;6.620;2023-12-22T08:23:32;37.40;;;7.53;;
20170;SDS011;10245;51.344;6.620;2023-12-22T08:26:04;33.33;;;7.25;;
20170;SDS011;10245;51.344;6.620;2023-12-22T08:28:28;38.78;;;7.80;;
20170;SDS011;10245;51.344;6.620;2023-12-22T08:30:51;31.85;;;7.00;;
20170;SDS011;10245;51.344;6.620;2023-12-22T08:33:16;38.17;;;8.70;;
20170;SDS011;10245;51.344;6.620;2023-12-22T08:35:39;31.02;;;7.60;;
20170;SDS011;10245;51.344;6.620;2023-12-22T08:38:04;35.92;;;7.10;;
20170;SDS011;10245;51.344;6.620;2023-12-22T08:40:29;45.63;;;7.60;;
20170;SDS011;10245;51.344;6.620;2023-12-22T08:42:54;35.72;;;7.20;;
20170;SDS011;10245;51.344;6.620;2023-12-22T08:45:20;33.72;;;6.95;;
20170;SDS011;10245;51.344;6.620;2023-12-22T08:47:44;31.00;;;6.63;;
20170;SDS011;10245;51.344;6.620;2023-12-22T08:50:09;35.53;;;6.85;;
20170;SDS011;10245;51.344;6.620;2023-12-22T08:52:34;46.83;;;7.22;;
20170;SDS011;10245;51.344;6.620;2023-12-22T08:54:57;38.08;;;7.60;;
20170;SDS011;10245;51.344;6.620;2023-12-22T08:57:20;36.40;;;7.72;;
20170;SDS011;10245;51.344;6.620;2023-12-22T08:59:44;39.17;;;8.00;;
20170;SDS011;10245;51.344;6.620;2023-12-22T09:02:07;33.72;;;8.00;;
20170;SDS011;10245;51.344;6.620;2023-12-22T09:04:30;30.52;;;6.88;;
20170;SDS011;10245;51.344;6.620;2023-12-22T09:06:55;40.08;;;7.97;;
20170;SDS011;10245;51.344;6.620;2023-12-22T09:09:19;34.28;;;7.75;;
20170;SDS011;10245;51.344;6.620;2023-12-22T09:11:44;37.10;;;8.45;;
20170;SDS011;10245;51.344;6.620;2023-12-22T09:14:07;32.05;;;6.43;;
20170;SDS011;10245;51.344;6.620;2023-12-22T09:16:31;26.92;;;6.80;;
20170;SDS011;10245;51.344;6.620;2023-12-22T09:18:55;32.55;;;6.95;;
20170;SDS011;10245;51.344;6.620;2023-12-22T09:21:19;33.65;;;6.78;;
20170;SDS011;10245;51.344;6.620;2023-12-22T09:23:44;27.85;;;6.28;;
20170;SDS011;10245;51.344;6.620;2023-12-22T09:26:08;28.23;;;6.85;;
20170;SDS011;10245;51.344;6.620;2023-12-22T09:28:31;31.20;;;6.10;;
20170;SDS011;10245;51.344;6.620;2023-12-22T09:30:56;29.27;;;6.70;;
20170;SDS011;10245;51.344;6.620;2023-12-22T09:33:19;33.55;;;6.15;;
20170;SDS011;10245;51.344;6.620;2023-12-22T09:35:44;33.15;;;7.55;;
20170;SDS011;10245;51.344;6.620;2023-12-22T09:38:08;27.58;;;5.95;;
20170;SDS011;10245;51.344;6.620;2023-12-22T09:40:32;27.40;;;5.80;;
20170;SDS011;10245;51.344;6.620;2023-12-22T09:42:57;22.73;;;6.10;;
20170;SDS011;10245;51.344;6.620;2023-12-22T09:45:21;30.90;;;6.20;;
20170;SDS011;10245;51.344;6.620;2023-12-22T09:47:45;25.23;;;5.57;;
20170;SDS011;10245;51.344;6.620;2023-12-22T09:50:11;17.92;;;4.97;;
20170;SDS011;10245;51.344;6.620;2023-12-22T09:52:35;22.27;;;4.35;;
20170;SDS011;10245;51.344;6.620;2023-12-22T09:55:01;21.15;;;4.65;;
20170;SDS011;10245;51.344;6.620;2023-12-22T09:57:26;20.92;;;4.47;;
20170;SDS011;10245;51.344;6.620;2023-12-22T09:59:52;22.67;;;4.20;;
20170;SDS011;10245;51.344;6.620;2023-12-22T10:02:17;17.48;;;3.83;;
20170;SDS011;10245;51.344;6.620;2023-12-22T10:04:41;15.75;;;3.97;;
20170;SDS011;10245;51.344;6.620;2023-12-22T10:07:05;21.73;;;4.60;;
20170;SDS011;10245;51.344;6.620;2023-12-22T10:09:30;14.40;;;3.80;;
20170;SDS011;10245;51.344;6.620;2023-12-22T10:11:55;12.55;;;3.50;;
20170;SDS011;10245;51.344;6.620;2023-12-22T10:14:22;11.65;;;3.60;;
20170;SDS011;10245;51.344;6.620;2023-12-22T10:16:48;14.85;;;3.33;;
20170;SDS011;10245;51.344;6.620;2023-12-22T10:19:11;12.00;;;2.63;;
20170;SDS011;10245;51.344;6.620;2023-12-22T10:21:37;12.25;;;2.60;;
20170;SDS011;10245;51.344;6.620;2023-12-22T10:24:00;9.48;;;2.42;;
20170;SDS011;10245;51.344;6.620;2023-12-22T10:26:24;12.68;;;2.72;;
20170;SDS011;10245;51.344;6.620;2023-12-22T10:28:47;13.75;;;2.70;;
20170;SDS011;10245;51.344;6.620;2023-12-22T10:31:12;11.45;;;2.90;;
20170;SDS011;10245;51.344;6.620;2023-12-22T10:33:35;9.50;;;2.53;;
20170;SDS011;10245;51.344;6.620;2023-12-22T10:36:00;10.18;;;2.60;;
20170;SDS011;10245;51.344;6.620;2023-12-22T10:38:23;8.02;;;2.28;;
20170;SDS011;10245;51.344;6.620;2023-12-22T10:40:46;9.23;;;2.80;;
20170;SDS011;10245;51.344;6.620;2023-12-22T10:43:10;9.15;;;2.33;;
20170;SDS011;10245;51.344;6.620;2023-12-22T10:45:34;8.40;;;2.30;;
20170;SDS011;10245;51.344;6.620;2023-12-22T10:47:58;8.43;;;2.30;;
20170;SDS011;10245;51.344;6.620;2023-12-22T10:50:23;12.98;;;2.50;;
20170;SDS011;10245;51.344;6.620;2023-12-22T10:52:48;7.43;;;2.15;;
20170;SDS011;10245;51.344;6.620;2023-12-22T10:55:13;8.55;;;2.47;;
20170;SDS011;10245;51.344;6.620;2023-12-22T10:57:38;5.35;;;1.90;;
20170;SDS011;10245;51.344;6.620;2023-12-22T11:00:02;5.97;;;2.42;;
20170;SDS011;10245;51.344;6.620;2023-12-22T11:02:27;6.45;;;1.92;;
20170;SDS011;10245;51.344;6.620;2023-12-22T11:04:55;8.73;;;2.03;;
20170;SDS011;10245;51.344;6.620;2023-12-22T11:07:23;5.55;;;2.10;;
20170;SDS011;10245;51.344;6.620;2023-12-22T11:09:47;5.97;;;1.83;;
20170;SDS011;10245;51.344;6.620;2023-12-22T11:12:13;4.70;;;1.40;;
20170;SDS011;10245;51.344;6.620;2023-12-22T11:14:37;6.00;;;1.90;;
20170;SDS011;10245;51.344;6.620;2023-12-22T11:17:02;5.35;;;1.70;;
20170;SDS011;10245;51.344;6.620;2023-12-22T11:19:28;5.38;;;1.98;;
20170;SDS011;10245;51.344;6.620;2023-12-22T11:21:58;9.15;;;2.60;;
20170;SDS011;10245;51.344;6.620;2023-12-22T11:24:22;7.07;;;2.00;;
20170;SDS011;10245;51.344;6.620;2023-12-22T11:26:48;7.35;;;1.73;;
20170;SDS011;10245;51.344;6.620;2023-12-22T11:29:14;4.47;;;1.67;;
20170;SDS011;10245;51.344;6.620;2023-12-22T11:31:40;3.28;;;1.60;;
20170;SDS011;10245;51.344;6.620;2023-12-22T11:34:07;4.78;;;1.73;;
20170;SDS011;10245;51.344;6.620;2023-12-22T11:36:38;4.22;;;1.65;;
20170;SDS011;10245;51.344;6.620;2023-12-22T11:39:04;5.82;;;1.70;;
20170;SDS011;10245;51.344;6.620;2023-12-22T11:41:30;5.03;;;1.65;;
20170;SDS011;10245;51.344;6.620;2023-12-22T11:43:58;5.85;;;1.80;;
20170;SDS011;10245;51.344;6.620;2023-12-22T11:46:22;6.45;;;1.65;;
20170;SDS011;10245;51.344;6.620;2023-12-22T11:48:47;3.97;;;1.60;;
20170;SDS011;10245;51.344;6.620;2023-12-22T11:51:12;5.82;;;1.67;;
20170;SDS011;10245;51.344;6.620;2023-12-22T11:53:36;3.50;;;1.23;;
20170;SDS011;10245;51.344;6.620;2023-12-22T11:56:01;4.93;;;1.55;;
20170;SDS011;10245;51.344;6.620;2023-12-22T11:58:34;3.47;;;1.75;;
20170;SDS011;10245;51.344;6.620;2023-12-22T12:01:02;3.80;;;1.50;;
20170;SDS011;10245;51.344;6.620;2023-12-22T12:03:29;6.22;;;1.50;;
20170;SDS011;10245;51.344;6.620;2023-12-22T12:06:02;7.95;;;1.67;;
20170;SDS011;10245;51.344;6.620;2023-12-22T12:08:55;5.47;;;1.65;;
20170;SDS011;10245;51.344;6.620;2023-12-22T12:11:20;4.63;;;1.70;;
20170;SDS011;10245;51.344;6.620;2023-12-22T12:13:44;5.72;;;1.80;;
20170;SDS011;10245;51.344;6.620;2023-12-22T12:16:10;5.07;;;1.50;;
20170;SDS011;10245;51.344;6.620;2023-12-22T12:18:33;6.80;;;2.20;;
20170;SDS011;10245;51.344;6.620;2023-12-22T12:20:57;6.70;;;2.40;;
20170;SDS011;10245;51.344;6.620;2023-12-22T12:23:21;5.30;;;1.98;;
20170;SDS011;10245;51.344;6.620;2023-12-22T12:25:47;8.18;;;1.70;;
20170;SDS011;10245;51.344;6.620;2023-12-22T12:28:12;6.78;;;1.70;;
20170;SDS011;10245;51.344;6.620;2023-12-22T12:30:38;6.95;;;1.83;;
20170;SDS011;10245;51.344;6.620;2023-12-22T12:33:06;9.30;;;2.40;;
20170;SDS011;10245;51.344;6.620;2023-12-22T12:35:32;7.97;;;2.10;;
20170;SDS011;10245;51.344;6.620;2023-12-22T12:37:57;6.13;;;2.20;;
20170;SDS011;10245;51.344;6.620;2023-12-22T12:40:21;4.88;;;1.60;;
20170;SDS011;10245;51.344;6.620;2023-12-22T12:42:47;7.75;;;1.80;;
20170;SDS011;10245;51.344;6.620;2023-12-22T12:45:12;5.72;;;2.00;;
20170;SDS011;10245;51.344;6.620;2023-12-22T12:47:36;9.38;;;2.53;;
20170;SDS011;10245;51.344;6.620;2023-12-22T12:49:59;7.95;;;2.00;;
20170;SDS011;10245;51.344;6.620;2023-12-22T12:52:24;5.03;;;2.22;;
20170;SDS011;10245;51.344;6.620;2023-12-22T12:54:47;6.53;;;2.10;;
20170;SDS011;10245;51.344;6.620;2023-12-22T12:57:14;6.43;;;1.83;;
20170;SDS011;10245;51.344;6.620;2023-12-22T12:59:38;7.85;;;4.07;;
20170;SDS011;10245;51.344;6.620;2023-12-22T13:02:04;6.55;;;2.10;;
20170;SDS011;10245;51.344;6.620;2023-12-22T13:04:36;8.80;;;3.03;;
20170;SDS011;10245;51.344;6.620;2023-12-22T13:07:00;7.07;;;2.58;;
20170;SDS011;10245;51.344;6.620;2023-12-22T13:09:30;8.55;;;2.40;;
20170;SDS011;10245;51.344;6.620;2023-12-22T13:11:55;6.97;;;1.98;;
20170;SDS011;10245;51.344;6.620;2023-12-22T13:14:21;8.18;;;2.80;;
20170;SDS011;10245;51.344;6.620;2023-12-22T13:16:46;5.75;;;2.60;;
20170;SDS011;10245;51.344;6.620;2023-12-22T13:19:11;9.65;;;2.13;;
20170;SDS011;10245;51.344;6.620;2023-12-22T13:21:34;8.23;;;2.03;;
20170;SDS011;10245;51.344;6.620;2023-12-22T13:24:10;6.18;;;2.60;;
20170;SDS011;10245;51.344;6.620;2023-12-22T13:26:34;8.63;;;2.30;;
20170;SDS011;10245;51.344;6.620;2023-12-22T13:28:57;7.35;;;2.00;;
20170;SDS011;10245;51.344;6.620;2023-12-22T13:31:21;4.97;;;2.10;;
20170;SDS011;10245;51.344;6.620;2023-12-22T13:33:45;7.43;;;2.38;;
20170;SDS011;10245;51.344;6.620;2023-12-22T13:36:09;9.93;;;2.50;;
20170;SDS011;10245;51.344;6.620;2023-12-22T13:38:33;7.50;;;2.28;;
20170;SDS011;10245;51.344;6.620;2023-12-22T13:40:56;5.57;;;2.25;;
20170;SDS011;10245;51.344;6.620;2023-12-22T13:43:22;7.07;;;1.92;;
20170;SDS011;10245;51.344;6.620;2023-12-22T13:45:48;8.65;;;2.47;;
20170;SDS011;10245;51.344;6.620;2023-12-22T13:48:15;8.90;;;2.15;;
20170;SDS011;10245;51.344;6.620;2023-12-22T13:50:38;8.52;;;2.65;;
20170;SDS011;10245;51.344;6.620;2023-12-22T13:53:09;8.32;;;2.35;;
20170;SDS011;10245;51.344;6.620;2023-12-22T13:55:33;6.18;;;2.00;;
20170;SDS011;10245;51.344;6.620;2023-12-22T13:57:59;7.60;;;2.75;;
20170;SDS011;10245;51.344;6.620;2023-12-22T14:00:28;11.30;;;3.00;;
20170;SDS011;10245;51.344;6.620;2023-12-22T14:02:53;10.48;;;2.45;;
20170;SDS011;10245;51.344;6.620;2023-12-22T14:05:17;11.13;;;2.92;;
20170;SDS011;10245;51.344;6.620;2023-12-22T14:07:40;7.85;;;2.65;;
20170;SDS011;10245;51.344;6.620;2023-12-22T14:10:05;7.30;;;1.88;;
20170;SDS011;10245;51.344;6.620;2023-12-22T14:12:30;8.73;;;2.47;;
20170;SDS011;10245;51.344;6.620;2023-12-22T14:14:57;7.40;;;2.30;;
20170;SDS011;10245;51.344;6.620;2023-12-22T14:17:21;5.13;;;1.75;;
20170;SDS011;10245;51.344;6.620;2023-12-22T14:19:45;14.68;;;2.45;;
20170;SDS011;10245;51.344;6.620;2023-12-22T14:22:10;10.32;;;2.50;;
20170;SDS011;10245;51.344;6.620;2023-12-22T14:24:34;5.88;;;2.15;;
20170;SDS011;10245;51.344;6.620;2023-12-22T14:26:58;9.18;;;3.60;;